Time;durP1;ratioP1;P1;durP2;ratioP2;P2;SDS_P1;SDS_P2;PMS_P1;PMS_P2;Temp;Humidity;BMP_temperature;BMP_pressure;BME280_temperature;BME280_humidity;BME280_pressure;Samples;Min_cycle;Max_cycle;Signal;HPM_P1;HPM_P2
2022/02/11 00:01:52;;;;;;;;;;;24.30;44.40;;;;;;1541396;77;1662;-70
2022/02/11 00:08:02;;;;;;;;;;;24.20;44.40;;;;;;1505545;75;1040;-68
2022/02/11 00:10:05;;;;;;;;;;;24.20;44.40;;;;;;1589634;75;742;-69
2022/02/11 00:12:07;;;;;;;;;;;24.20;44.40;;;;;;1592346;75;730;-68
2022/02/11 00:14:09;;;;;;;;;;;24.20;44.50;;;;;;1570519;75;1943;-67
2022/02/11 00:16:11;;;;;;;;;;;24.20;44.50;;;;;;1592182;73;1154;-68
2022/02/11 00:18:15;;;;;;;;;;;24.20;44.50;;;;;;1592448;75;769;-68
2022/02/11 00:20:17;;;;;;;;;;;24.20;44.50;;;;;;1556936;75;1603;-71
2022/02/11 00:22:18;;;;;;;;;;;24.20;44.50;;;;;;1543508;77;808;-67
2022/02/11 00:24:20;;;;;;;;;;;24.30;44.70;;;;;;1543438;77;763;-68
2022/02/11 00:26:28;;;;;;;;;;;24.30;44.70;;;;;;1563679;74;1146;-67
2022/02/11 00:31:04;;;;;;;;;;;24.30;44.70;;;;;;1543279;77;705;-70
2022/02/11 00:33:20;;;;;;;;;;;24.20;44.50;;;;;;1540070;77;1744;-67
2022/02/11 00:34:59;;;;;;;;;;;24.20;44.60;;;;;;1532804;77;1924;-67
2022/02/11 00:37:07;;;;;;;;;;;24.20;44.60;;;;;;1542407;76;1641;-67
2022/02/11 00:39:22;;;;;;;;;;;24.20;44.60;;;;;;1541629;77;1647;-67
2022/02/11 00:44:34;;;;;;;;;;;24.20;44.70;;;;;;1543345;77;1656;-70
2022/02/11 01:04:14;;;;;;;;;;;24.20;44.90;;;;;;1528813;77;857;-68
2022/02/11 01:06:15;;;;;;;;;;;24.20;44.90;;;;;;1543839;76;1133;-71
2022/02/11 01:08:17;;;;;;;;;;;24.20;44.80;;;;;;1543959;76;761;-68
2022/02/11 01:10:20;;;;;;;;;;;24.20;44.80;;;;;;1543352;77;720;-67
2022/02/11 01:12:22;;;;;;;;;;;24.20;44.90;;;;;;1543445;77;722;-68
2022/02/11 01:14:37;;;;;;;;;;;24.20;44.90;;;;;;1552127;76;1915;-69
2022/02/11 01:16:45;;;;;;;;;;;24.20;45.00;;;;;;1556916;75;1648;-66
2022/02/11 01:18:49;;;;;;;;;;;24.20;45.00;;;;;;1542711;77;1648;-68
2022/02/11 01:20:56;;;;;;;;;;;24.20;45.00;;;;;;1543252;76;1464;-70
2022/02/11 01:23:23;;;;;;;;;;;24.30;45.10;;;;;;1542509;77;1515;-69
2022/02/11 01:27:58;;;;;;;;;;;24.20;45.00;;;;;;1565982;74;1688;-67
2022/02/11 01:30:10;;;;;;;;;;;24.20;44.90;;;;;;1540921;77;1701;-67
2022/02/11 01:34:09;;;;;;;;;;;24.20;45.00;;;;;;1543290;77;1956;-68
2022/02/11 01:36:12;;;;;;;;;;;24.20;45.00;;;;;;1540770;76;1643;-72
2022/02/11 01:38:18;;;;;;;;;;;24.20;45.00;;;;;;1558693;76;1640;-67
2022/02/11 01:43:36;;;;;;;;;;;24.20;45.00;;;;;;1515896;78;868;-68
2022/02/11 01:44:58;;;;;;;;;;;24.20;45.00;;;;;;1537201;76;1450;-70
2022/02/11 01:47:21;;;;;;;;;;;24.20;45.00;;;;;;1550290;76;1499;-67
2022/02/11 01:51:34;;;;;;;;;;;24.30;45.20;;;;;;1581271;74;1681;-67
2022/02/11 01:53:37;;;;;;;;;;;24.20;45.20;;;;;;1595481;74;1700;-70
2022/02/11 01:58:19;;;;;;;;;;;24.30;45.30;;;;;;1578648;75;1652;-68
2022/02/11 02:09:44;;;;;;;;;;;24.20;45.20;;;;;;1574676;75;1642;-68
2022/02/11 02:27:19;;;;;;;;;;;24.20;45.30;;;;;;1563324;76;1656;-67
2022/02/11 02:30:08;;;;;;;;;;;24.10;45.40;;;;;;1561210;75;1492;-68
2022/02/11 02:34:07;;;;;;;;;;;24.20;45.40;;;;;;1544865;76;1654;-68
2022/02/11 02:38:44;;;;;;;;;;;24.20;45.30;;;;;;1543462;77;866;-69
2022/02/11 02:56:51;;;;;;;;;;;24.10;45.40;;;;;;1569527;76;1671;-67
2022/02/11 02:58:59;;;;;;;;;;;24.10;45.50;;;;;;1581582;75;1672;-70
2022/02/11 03:15:25;;;;;;;;;;;24.10;45.50;;;;;;1569840;76;1884;-67
2022/02/11 03:17:48;;;;;;;;;;;24.10;45.50;;;;;;1565542;74;1452;-65
2022/02/11 03:48:41;;;;;;;;;;;24.20;45.80;;;;;;1535584;76;1109;-69
2022/02/11 03:49:37;;;;;;;;;;;24.40;45.60;;;;;;1565086;76;1643;-68
2022/02/11 03:51:46;;;;;;;;;;;24.40;45.60;;;;;;1553004;76;1496;-69
2022/02/11 03:54:03;;;;;;;;;;;24.50;45.60;;;;;;1569590;75;1674;-65
2022/02/11 03:56:47;;;;;;;;;;;24.50;45.60;;;;;;1562816;74;1942;-67
2022/02/11 04:55:14;;;;;;;;;;;24.80;44.90;;;;;;1550810;74;1935;-67
2022/02/11 05:01:40;;;;;;;;;;;24.80;44.80;;;;;;1565088;76;708;-70
2022/02/11 05:03:39;;;;;;;;;;;24.80;44.80;;;;;;1565138;75;1606;-69
2022/02/11 05:05:50;;;;;;;;;;;24.80;44.70;;;;;;1564997;76;1085;-69
2022/02/11 05:07:52;;;;;;;;;;;24.80;44.70;;;;;;1565288;76;607;-69
2022/02/11 05:09:54;;;;;;;;;;;24.80;44.70;;;;;;1547125;76;849;-71
2022/02/11 05:11:56;;;;;;;;;;;24.80;44.70;;;;;;1543320;77;671;-69
2022/02/11 05:13:58;;;;;;;;;;;24.80;44.60;;;;;;1543385;77;871;-69
2022/02/11 05:15:59;;;;;;;;;;;24.80;44.50;;;;;;1543335;76;1941;-67
2022/02/11 05:18:02;;;;;;;;;;;24.90;44.60;;;;;;1553505;76;687;-69
2022/02/11 05:20:04;;;;;;;;;;;24.80;44.60;;;;;;1554000;76;786;-67
2022/02/11 05:22:06;;;;;;;;;;;24.80;44.40;;;;;;1543325;77;806;-71
2022/02/11 05:24:08;;;;;;;;;;;24.80;44.50;;;;;;1543484;77;787;-70
2022/02/11 05:26:10;;;;;;;;;;;24.90;44.60;;;;;;1543316;76;1093;-70
2022/02/11 05:28:12;;;;;;;;;;;24.90;44.50;;;;;;1543762;76;699;-68
2022/02/11 05:30:14;;;;;;;;;;;24.90;44.50;;;;;;1543425;77;793;-68
2022/02/11 05:32:16;;;;;;;;;;;24.90;44.40;;;;;;1565885;75;808;-69
2022/02/11 05:34:18;;;;;;;;;;;25.00;44.50;;;;;;1592137;75;682;-70
2022/02/11 05:36:20;;;;;;;;;;;24.90;44.50;;;;;;1586037;73;1933;-71
2022/02/11 05:38:22;;;;;;;;;;;25.00;44.40;;;;;;1543459;77;806;-69
2022/02/11 05:40:23;;;;;;;;;;;24.90;44.40;;;;;;1554113;76;1105;-70
2022/02/11 05:42:28;;;;;;;;;;;24.90;44.40;;;;;;1543462;77;731;-70
2022/02/11 05:44:29;;;;;;;;;;;24.90;44.40;;;;;;1543042;77;1692;-68
2022/02/11 05:46:31;;;;;;;;;;;24.90;44.40;;;;;;1543484;76;1127;-68
2022/02/11 05:48:35;;;;;;;;;;;24.90;44.40;;;;;;1544159;76;766;-70
2022/02/11 05:50:36;;;;;;;;;;;24.90;44.60;;;;;;1543644;76;1675;-69
2022/02/11 05:52:38;;;;;;;;;;;24.90;44.60;;;;;;1566652;76;793;-69
2022/02/11 05:54:40;;;;;;;;;;;24.90;44.50;;;;;;1568598;76;769;-70
2022/02/11 05:56:42;;;;;;;;;;;25.00;44.40;;;;;;1569516;74;1931;-69
2022/02/11 05:58:44;;;;;;;;;;;25.00;44.30;;;;;;1559369;75;756;-69
2022/02/11 06:00:45;;;;;;;;;;;25.00;44.20;;;;;;1559392;74;669;-69
2022/02/11 06:02:47;;;;;;;;;;;25.00;44.20;;;;;;1562037;74;740;-71
2022/02/11 06:04:49;;;;;;;;;;;24.90;44.10;;;;;;1563885;74;813;-68
2022/02/11 06:06:52;;;;;;;;;;;25.00;44.20;;;;;;1565945;76;1183;-69
2022/02/11 06:08:54;;;;;;;;;;;25.00;44.20;;;;;;1550068;76;769;-69
2022/02/11 06:10:56;;;;;;;;;;;25.00;44.10;;;;;;1566393;76;803;-71
2022/02/11 06:12:57;;;;;;;;;;;25.00;44.10;;;;;;1567852;76;727;-77
2022/02/11 06:14:59;;;;;;;;;;;25.00;44.20;;;;;;1563053;74;1934;-66
2022/02/11 06:17:01;;;;;;;;;;;25.00;44.10;;;;;;1565950;74;1151;-67
2022/02/11 06:19:03;;;;;;;;;;;25.00;44.20;;;;;;1559839;74;804;-69
2022/02/11 06:21:05;;;;;;;;;;;25.00;44.20;;;;;;1563602;74;774;-69
2022/02/11 06:23:08;;;;;;;;;;;25.00;44.30;;;;;;1563147;74;717;-70
2022/02/11 06:25:11;;;;;;;;;;;25.00;44.20;;;;;;1556402;74;756;-68
2022/02/11 06:27:15;;;;;;;;;;;25.00;44.30;;;;;;1561796;74;1124;-71
2022/02/11 06:29:17;;;;;;;;;;;25.00;44.30;;;;;;1568156;74;2107;-75
2022/02/11 06:31:18;;;;;;;;;;;25.00;44.30;;;;;;1566010;74;740;-70
2022/02/11 06:33:20;;;;;;;;;;;25.00;44.20;;;;;;1587869;75;931;-69
2022/02/11 06:35:22;;;;;;;;;;;25.00;44.20;;;;;;1584736;75;1931;-70
2022/02/11 06:37:24;;;;;;;;;;;25.00;44.20;;;;;;1562158;74;1130;-69
2022/02/11 06:39:26;;;;;;;;;;;25.00;44.20;;;;;;1554423;74;662;-71
2022/02/11 06:41:28;;;;;;;;;;;25.00;44.10;;;;;;1551960;75;644;-73
2022/02/11 06:43:30;;;;;;;;;;;25.00;44.10;;;;;;1549640;74;786;-73
2022/02/11 06:45:32;;;;;;;;;;;25.00;44.10;;;;;;1567584;74;752;-71
2022/02/11 06:47:34;;;;;;;;;;;24.90;44.00;;;;;;1552012;74;713;-70
2022/02/11 06:49:36;;;;;;;;;;;24.90;44.00;;;;;;1551710;76;739;-71
2022/02/11 06:51:38;;;;;;;;;;;25.00;44.00;;;;;;1569164;76;731;-70
2022/02/11 06:53:39;;;;;;;;;;;24.90;44.00;;;;;;1568685;76;739;-70
2022/02/11 06:55:42;;;;;;;;;;;24.90;44.00;;;;;;1568532;74;1940;-70
2022/02/11 06:57:44;;;;;;;;;;;24.90;44.00;;;;;;1576342;75;710;-70
2022/02/11 06:59:46;;;;;;;;;;;25.00;44.00;;;;;;1558945;74;662;-70
2022/02/11 07:01:48;;;;;;;;;;;24.90;44.00;;;;;;1560155;74;774;-70
2022/02/11 07:03:49;;;;;;;;;;;24.90;44.00;;;;;;1562678;74;788;-70
2022/02/11 07:05:54;;;;;;;;;;;24.90;44.00;;;;;;1561016;74;1154;-74
2022/02/11 07:07:55;;;;;;;;;;;24.90;44.00;;;;;;1555808;74;2032;-70
2022/02/11 07:09:57;;;;;;;;;;;24.90;44.00;;;;;;1550760;74;778;-70
2022/02/11 07:11:59;;;;;;;;;;;24.90;44.00;;;;;;1554068;74;800;-70
2022/02/11 07:14:01;;;;;;;;;;;24.90;44.00;;;;;;1554531;74;796;-70
2022/02/11 07:16:02;;;;;;;;;;;24.90;43.90;;;;;;1583870;73;1940;-72
2022/02/11 07:18:04;;;;;;;;;;;24.90;43.90;;;;;;1559008;74;581;-73
2022/02/11 07:20:07;;;;;;;;;;;24.80;43.80;;;;;;1546854;74;774;-74
2022/02/11 07:22:09;;;;;;;;;;;24.80;43.90;;;;;;1554201;74;787;-70
2022/02/11 07:24:11;;;;;;;;;;;24.80;43.90;;;;;;1554357;76;676;-70
2022/02/11 07:26:13;;;;;;;;;;;24.80;43.90;;;;;;1553477;74;1144;-73
2022/02/11 07:28:16;;;;;;;;;;;24.80;43.80;;;;;;1556272;74;755;-70
2022/02/11 07:30:20;;;;;;;;;;;24.80;43.90;;;;;;1559250;74;764;-69
2022/02/11 07:32:21;;;;;;;;;;;24.80;43.80;;;;;;1560705;74;1633;-71
2022/02/11 07:34:23;;;;;;;;;;;24.80;43.90;;;;;;1565657;74;704;-70
2022/02/11 07:36:25;;;;;;;;;;;24.80;43.90;;;;;;1559641;74;1942;-72
2022/02/11 07:38:27;;;;;;;;;;;24.80;43.80;;;;;;1555831;74;813;-70
2022/02/11 07:40:29;;;;;;;;;;;24.80;43.80;;;;;;1563519;74;784;-76
2022/02/11 07:42:33;;;;;;;;;;;24.80;43.70;;;;;;1562377;74;735;-71
2022/02/11 07:44:34;;;;;;;;;;;24.80;43.80;;;;;;1554203;74;1938;-71
2022/02/11 07:46:36;;;;;;;;;;;24.80;44.00;;;;;;1554619;74;1160;-72
2022/02/11 07:48:38;;;;;;;;;;;24.80;43.90;;;;;;1549899;74;734;-73
2022/02/11 07:50:42;;;;;;;;;;;24.90;44.00;;;;;;1563155;74;745;-77
2022/02/11 07:52:44;;;;;;;;;;;24.90;43.90;;;;;;1554957;74;786;-70
2022/02/11 07:54:46;;;;;;;;;;;25.00;44.00;;;;;;1561364;74;784;-71
2022/02/11 07:56:47;;;;;;;;;;;24.80;43.60;;;;;;1567559;74;1930;-72
2022/02/11 07:58:51;;;;;;;;;;;24.80;43.40;;;;;;1560226;74;771;-72
2022/02/11 08:00:53;;;;;;;;;;;24.70;43.20;;;;;;1551348;74;775;-73
2022/02/11 08:02:54;;;;;;;;;;;24.60;42.80;;;;;;1563328;74;842;-73
2022/02/11 08:04:56;;;;;;;;;;;24.60;42.70;;;;;;1560515;74;782;-70
2022/02/11 08:06:58;;;;;;;;;;;24.60;42.50;;;;;;1558830;74;1154;-71
2022/02/11 08:09:00;;;;;;;;;;;24.50;42.50;;;;;;1548737;74;881;-70
2022/02/11 08:11:02;;;;;;;;;;;24.50;42.20;;;;;;1544628;74;768;-69
2022/02/11 08:13:04;;;;;;;;;;;24.40;41.90;;;;;;1553281;74;805;-72
2022/02/11 08:15:06;;;;;;;;;;;24.40;41.80;;;;;;1553963;74;730;-72
2022/02/11 08:17:08;;;;;;;;;;;24.40;41.70;;;;;;1563428;74;1947;-72
2022/02/11 08:19:10;;;;;;;;;;;24.30;41.50;;;;;;1577966;74;790;-70
2022/02/11 08:21:12;;;;;;;;;;;24.30;41.30;;;;;;1578481;74;788;-71
2022/02/11 08:23:13;;;;;;;;;;;24.30;41.20;;;;;;1578931;74;728;-72
2022/02/11 08:25:16;;;;;;;;;;;24.20;41.00;;;;;;1559180;74;784;-70
2022/02/11 08:27:17;;;;;;;;;;;24.20;40.80;;;;;;1563527;74;1056;-72
2022/02/11 08:29:24;;;;;;;;;;;24.20;40.80;;;;;;1578408;74;751;-71
2022/02/11 08:31:24;;;;;;;;;;;24.20;40.70;;;;;;1563112;74;1784;-71
2022/02/11 08:33:26;;;;;;;;;;;24.10;41.00;;;;;;1566938;74;715;-72
2022/02/11 08:35:28;;;;;;;;;;;24.10;40.80;;;;;;1562961;74;739;-71
2022/02/11 08:37:30;;;;;;;;;;;24.10;40.60;;;;;;1564844;74;1942;-71
2022/02/11 08:39:34;;;;;;;;;;;24.10;40.60;;;;;;1571534;74;791;-71
2022/02/11 08:41:35;;;;;;;;;;;24.10;40.60;;;;;;1574513;74;1664;-72
2022/02/11 08:43:37;;;;;;;;;;;24.10;40.50;;;;;;1582834;74;785;-71
2022/02/11 08:45:40;;;;;;;;;;;24.00;40.30;;;;;;1566644;74;1152;-71
2022/02/11 08:47:42;;;;;;;;;;;24.00;40.20;;;;;;1564050;74;781;-71
2022/02/11 08:49:44;;;;;;;;;;;24.00;40.20;;;;;;1564113;74;698;-72
2022/02/11 08:51:46;;;;;;;;;;;24.00;40.10;;;;;;1570689;74;815;-71
2022/02/11 08:53:51;;;;;;;;;;;23.90;40.20;;;;;;1585348;74;750;-71
2022/02/11 08:55:53;;;;;;;;;;;23.90;40.10;;;;;;1571792;74;1506;-72
2022/02/11 08:57:59;;;;;;;;;;;23.90;40.00;;;;;;1562314;74;2022;-72
2022/02/11 08:59:59;;;;;;;;;;;23.90;40.00;;;;;;1557249;74;1631;-71
2022/02/11 09:02:03;;;;;;;;;;;23.90;39.90;;;;;;1559482;74;736;-71
2022/02/11 09:04:04;;;;;;;;;;;23.90;40.00;;;;;;1554412;74;1681;-72
2022/02/11 09:06:06;;;;;;;;;;;23.90;39.90;;;;;;1557899;74;1166;-73
2022/02/11 09:08:09;;;;;;;;;;;23.90;40.00;;;;;;1557281;74;711;-72
2022/02/11 09:10:11;;;;;;;;;;;23.90;39.90;;;;;;1564259;74;829;-72
2022/02/11 09:12:13;;;;;;;;;;;23.80;39.90;;;;;;1576594;74;786;-71
2022/02/11 09:14:15;;;;;;;;;;;23.90;39.90;;;;;;1577031;74;897;-73
2022/02/11 09:16:18;;;;;;;;;;;23.90;39.90;;;;;;1579138;74;1934;-71
2022/02/11 09:18:20;;;;;;;;;;;23.90;39.80;;;;;;1555140;74;720;-74
2022/02/11 09:20:22;;;;;;;;;;;23.80;39.70;;;;;;1558788;74;725;-73
2022/02/11 09:22:24;;;;;;;;;;;23.90;39.60;;;;;;1577163;74;822;-73
2022/02/11 09:24:26;;;;;;;;;;;23.80;39.40;;;;;;1564866;74;747;-73
2022/02/11 09:26:28;;;;;;;;;;;23.80;39.50;;;;;;1579653;74;1149;-71
2022/02/11 09:28:30;;;;;;;;;;;23.80;39.40;;;;;;1592400;74;756;-71
2022/02/11 09:30:32;;;;;;;;;;;23.80;39.30;;;;;;1580585;74;778;-71
2022/02/11 09:32:34;;;;;;;;;;;23.80;39.20;;;;;;1568284;76;785;-71
2022/02/11 09:34:37;;;;;;;;;;;23.70;39.30;;;;;;1563914;74;726;-71
2022/02/11 09:36:39;;;;;;;;;;;23.80;39.30;;;;;;1561067;74;1928;-70
2022/02/11 09:38:41;;;;;;;;;;;23.80;39.30;;;;;;1568449;74;732;-71
2022/02/11 09:40:50;;;;;;;;;;;23.80;39.20;;;;;;1562915;74;778;-70
2022/02/11 09:42:51;;;;;;;;;;;23.80;39.10;;;;;;1569325;74;1033;-72
2022/02/11 09:44:53;;;;;;;;;;;23.90;39.00;;;;;;1569279;74;734;-73
2022/02/11 09:46:55;;;;;;;;;;;23.70;38.90;;;;;;1568780;74;1157;-72
2022/02/11 09:48:57;;;;;;;;;;;23.70;39.00;;;;;;1569891;74;762;-72
2022/02/11 09:50:59;;;;;;;;;;;23.80;38.90;;;;;;1560136;76;785;-71
2022/02/11 09:53:01;;;;;;;;;;;23.70;39.00;;;;;;1574780;74;705;-72
2022/02/11 09:57:23;;;;;;;;;;;23.70;38.80;;;;;;1571978;74;1939;-72
2022/02/11 09:59:25;;;;;;;;;;;23.80;38.80;;;;;;1557424;74;778;-73
2022/02/11 10:01:27;;;;;;;;;;;23.80;38.70;;;;;;1552397;74;897;-72
2022/02/11 10:03:32;;;;;;;;;;;23.70;38.50;;;;;;1552961;74;633;-72
2022/02/11 10:05:35;;;;;;;;;;;23.80;38.70;;;;;;1551211;74;1168;-72
2022/02/11 10:07:46;;;;;;;;;;;23.80;38.60;;;;;;1548475;74;737;-73
2022/02/11 10:09:49;;;;;;;;;;;23.80;38.60;;;;;;1552023;75;775;-71
2022/02/11 10:11:51;;;;;;;;;;;23.80;38.80;;;;;;1559100;74;741;-73
2022/02/11 10:13:55;;;;;;;;;;;23.80;38.50;;;;;;1562621;74;804;-73
2022/02/11 10:15:57;;;;;;;;;;;23.70;38.70;;;;;;1554451;74;1602;-71
2022/02/11 10:17:59;;;;;;;;;;;23.70;38.90;;;;;;1578521;74;1932;-72
2022/02/11 10:20:01;;;;;;;;;;;23.70;38.80;;;;;;1563472;74;749;-72
2022/02/11 10:22:08;;;;;;;;;;;23.70;38.70;;;;;;1575685;74;769;-72
2022/02/11 10:24:10;;;;;;;;;;;23.70;38.70;;;;;;1572766;74;1379;-73
2022/02/11 10:26:16;;;;;;;;;;;23.70;38.70;;;;;;1550869;75;1176;-72
2022/02/11 10:28:25;;;;;;;;;;;23.70;38.70;;;;;;1564968;74;750;-73
2022/02/11 10:30:27;;;;;;;;;;;23.60;38.50;;;;;;1569707;74;2014;-73
2022/02/11 10:32:46;;;;;;;;;;;23.70;38.60;;;;;;1581688;74;714;-73
2022/02/11 10:34:51;;;;;;;;;;;23.60;38.50;;;;;;1567928;74;791;-73
2022/02/11 10:36:53;;;;;;;;;;;23.60;38.40;;;;;;1562913;74;1934;-73
2022/02/11 10:39:13;;;;;;;;;;;23.60;38.40;;;;;;1569499;74;812;-73
2022/02/11 10:41:17;;;;;;;;;;;23.60;38.30;;;;;;1555175;74;639;-73
2022/02/11 10:43:26;;;;;;;;;;;23.60;38.00;;;;;;1565581;74;1077;-74
2022/02/11 10:45:37;;;;;;;;;;;23.60;38.10;;;;;;1562654;74;1614;-72
2022/02/11 10:47:36;;;;;;;;;;;23.60;38.00;;;;;;1559623;74;1126;-74
2022/02/11 10:49:42;;;;;;;;;;;23.60;38.00;;;;;;1562808;74;715;-72
2022/02/11 10:51:45;;;;;;;;;;;23.60;38.00;;;;;;1566366;74;763;-72
2022/02/11 10:53:47;;;;;;;;;;;23.60;37.90;;;;;;1576840;74;712;-73
2022/02/11 10:55:49;;;;;;;;;;;23.50;37.80;;;;;;1563214;74;1139;-74
2022/02/11 10:57:55;;;;;;;;;;;23.50;37.70;;;;;;1573787;74;1955;-72
2022/02/11 10:59:56;;;;;;;;;;;23.50;37.70;;;;;;1584327;74;1851;-72
2022/02/11 11:01:58;;;;;;;;;;;23.50;37.70;;;;;;1563545;74;729;-71
2022/02/11 11:04:00;;;;;;;;;;;23.40;37.40;;;;;;1547912;74;778;-70
2022/02/11 11:06:04;;;;;;;;;;;23.50;37.50;;;;;;1542333;75;1132;-73
2022/02/11 11:08:06;;;;;;;;;;;23.60;37.40;;;;;;1573784;74;720;-70
2022/02/11 11:10:09;;;;;;;;;;;23.70;37.50;;;;;;1568717;74;816;-69
2022/02/11 11:12:11;;;;;;;;;;;23.70;37.40;;;;;;1550482;74;706;-71
2022/02/11 11:14:13;;;;;;;;;;;23.80;37.30;;;;;;1553633;75;1184;-78
2022/02/11 11:16:16;;;;;;;;;;;23.80;37.30;;;;;;1561539;74;1129;-77
2022/02/11 11:18:18;;;;;;;;;;;23.90;37.30;;;;;;1571263;74;1902;-71
2022/02/11 11:20:20;;;;;;;;;;;24.00;37.30;;;;;;1557674;74;772;-70
2022/02/11 11:22:24;;;;;;;;;;;24.00;37.30;;;;;;1555648;74;816;-70
2022/02/11 11:24:25;;;;;;;;;;;24.00;37.30;;;;;;1563015;76;672;-72
2022/02/11 11:26:34;;;;;;;;;;;24.10;37.40;;;;;;1560997;74;1187;-70
2022/02/11 11:28:46;;;;;;;;;;;24.10;37.40;;;;;;1549860;74;726;-71
2022/02/11 11:30:49;;;;;;;;;;;24.20;37.50;;;;;;1566208;74;787;-75
2022/02/11 11:33:11;;;;;;;;;;;24.20;37.40;;;;;;1570980;74;1117;-70
2022/02/11 11:35:13;;;;;;;;;;;24.20;37.50;;;;;;1558045;74;742;-71
2022/02/11 11:37:15;;;;;;;;;;;24.30;37.60;;;;;;1545272;75;1956;-71
2022/02/11 11:39:18;;;;;;;;;;;24.30;37.60;;;;;;1558663;74;728;-73
2022/02/11 11:41:23;;;;;;;;;;;24.30;37.60;;;;;;1562904;74;930;-71
2022/02/11 11:43:41;;;;;;;;;;;24.30;37.70;;;;;;1556065;76;741;-71
2022/02/11 11:45:42;;;;;;;;;;;24.30;37.80;;;;;;1551037;74;1683;-80
2022/02/11 11:47:44;;;;;;;;;;;24.30;37.90;;;;;;1561817;74;1798;-74
2022/02/11 11:49:47;;;;;;;;;;;24.40;37.90;;;;;;1560234;76;729;-71
2022/02/11 11:51:51;;;;;;;;;;;24.40;37.90;;;;;;1564087;74;1054;-71
2022/02/11 11:53:54;;;;;;;;;;;24.40;37.90;;;;;;1563080;74;750;-71
2022/02/11 11:55:56;;;;;;;;;;;24.40;38.00;;;;;;1557363;74;1731;-71
2022/02/11 11:57:58;;;;;;;;;;;24.50;38.00;;;;;;1559954;75;1922;-71
2022/02/11 12:00:00;;;;;;;;;;;24.50;38.00;;;;;;1567191;74;622;-72
2022/02/11 12:02:08;;;;;;;;;;;24.50;37.90;;;;;;1563401;74;690;-75
2022/02/11 12:04:17;;;;;;;;;;;24.50;38.10;;;;;;1559049;74;727;-72
2022/02/11 12:06:20;;;;;;;;;;;24.50;38.10;;;;;;1565935;74;1152;-71
2022/02/11 12:08:22;;;;;;;;;;;24.60;38.10;;;;;;1543988;75;701;-70
2022/02/11 12:10:24;;;;;;;;;;;24.60;38.20;;;;;;1567338;74;721;-70
2022/02/11 12:12:27;;;;;;;;;;;24.50;38.40;;;;;;1567117;76;728;-71
2022/02/11 12:14:30;;;;;;;;;;;24.60;38.50;;;;;;1583185;74;1822;-70
2022/02/11 12:16:32;;;;;;;;;;;24.50;38.70;;;;;;1566032;74;1179;-70
2022/02/11 12:18:36;;;;;;;;;;;24.60;38.90;;;;;;1566680;74;1934;-70
2022/02/11 12:20:38;;;;;;;;;;;24.50;38.90;;;;;;1559330;74;757;-71
2022/02/11 12:27:19;;;;;;;;;;;24.50;39.00;;;;;;1570746;74;725;-70
2022/02/11 12:27:20;;;;;;;;;;;24.60;39.10;;;;;;1558967;74;1236;-70
2022/02/11 12:29:23;;;;;;;;;;;24.60;39.30;;;;;;1560493;74;664;-72
2022/02/11 12:31:25;;;;;;;;;;;24.60;39.20;;;;;;1554819;74;718;-71
2022/02/11 12:33:27;;;;;;;;;;;24.60;39.20;;;;;;1559367;74;610;-70
2022/02/11 12:35:32;;;;;;;;;;;24.70;39.40;;;;;;1551834;74;718;-72
2022/02/11 12:37:34;;;;;;;;;;;24.70;39.30;;;;;;1552726;74;1940;-72
2022/02/11 12:39:36;;;;;;;;;;;24.70;39.00;;;;;;1555192;74;695;-73
2022/02/11 12:41:44;;;;;;;;;;;24.80;38.80;;;;;;1564903;76;811;-72
2022/02/11 12:43:48;;;;;;;;;;;24.80;38.80;;;;;;1566266;74;763;-68
2022/02/11 12:45:49;;;;;;;;;;;24.80;38.60;;;;;;1566353;74;1132;-70
2022/02/11 12:47:53;;;;;;;;;;;24.80;38.50;;;;;;1570700;74;653;-71
2022/02/11 12:49:56;;;;;;;;;;;24.80;38.50;;;;;;1560135;74;742;-76
2022/02/11 12:51:58;;;;;;;;;;;24.80;38.40;;;;;;1562592;75;744;-71
2022/02/11 12:54:05;;;;;;;;;;;24.80;38.40;;;;;;1563668;74;716;-71
2022/02/11 12:56:09;;;;;;;;;;;24.90;38.40;;;;;;1564066;74;1152;-71
2022/02/11 12:58:11;;;;;;;;;;;24.80;38.30;;;;;;1568669;73;1986;-71
2022/02/11 13:00:15;;;;;;;;;;;24.80;38.10;;;;;;1569155;74;715;-71
2022/02/11 13:02:24;;;;;;;;;;;24.80;38.10;;;;;;1558642;74;715;-70
2022/02/11 13:04:26;;;;;;;;;;;24.80;38.10;;;;;;1561069;74;1827;-72
2022/02/11 13:06:28;;;;;;;;;;;24.80;38.10;;;;;;1564817;74;1300;-75
2022/02/11 13:08:29;;;;;;;;;;;24.80;38.00;;;;;;1528231;76;1190;-72
2022/02/11 13:10:32;;;;;;;;;;;24.80;38.00;;;;;;1559656;75;811;-71
2022/02/11 13:12:35;;;;;;;;;;;24.80;37.90;;;;;;1565193;74;721;-71
2022/02/11 13:14:38;;;;;;;;;;;24.80;38.00;;;;;;1565246;74;884;-72
2022/02/11 13:16:40;;;;;;;;;;;24.80;37.80;;;;;;1562977;74;1142;-72
2022/02/11 13:18:42;;;;;;;;;;;24.80;38.00;;;;;;1559460;74;1915;-70
2022/02/11 13:20:45;;;;;;;;;;;24.80;37.80;;;;;;1565605;74;724;-70
2022/02/11 13:22:48;;;;;;;;;;;24.80;37.90;;;;;;1570478;74;824;-72
2022/02/11 13:24:50;;;;;;;;;;;24.80;38.00;;;;;;1573917;74;740;-70
2022/02/11 13:26:52;;;;;;;;;;;24.80;37.90;;;;;;1562043;75;1161;-71
2022/02/11 13:28:55;;;;;;;;;;;24.70;38.00;;;;;;1562713;75;682;-72
2022/02/11 13:31:00;;;;;;;;;;;24.70;37.90;;;;;;1573204;74;722;-71
2022/02/11 13:33:04;;;;;;;;;;;24.70;38.00;;;;;;1574852;74;717;-71
2022/02/11 13:35:06;;;;;;;;;;;24.70;38.00;;;;;;1569135;74;1163;-74
2022/02/11 13:37:08;;;;;;;;;;;24.60;37.80;;;;;;1571090;74;1127;-73
2022/02/11 13:39:10;;;;;;;;;;;24.50;37.80;;;;;;1577600;74;1949;-70
2022/02/11 13:41:12;;;;;;;;;;;24.50;37.80;;;;;;1572623;74;728;-73
2022/02/11 13:43:14;;;;;;;;;;;24.50;37.80;;;;;;1560250;74;767;-70
2022/02/11 13:45:15;;;;;;;;;;;24.50;37.80;;;;;;1563201;74;704;-71
2022/02/11 13:47:17;;;;;;;;;;;24.50;37.80;;;;;;1565533;74;1152;-71
2022/02/11 13:49:21;;;;;;;;;;;24.50;37.80;;;;;;1560959;74;766;-71
2022/02/11 13:51:22;;;;;;;;;;;24.50;37.80;;;;;;1555538;74;859;-71
2022/02/11 13:53:35;;;;;;;;;;;24.50;37.90;;;;;;1566070;74;711;-70
2022/02/11 13:55:38;;;;;;;;;;;24.40;37.70;;;;;;1539608;74;1182;-74
2022/02/11 13:57:40;;;;;;;;;;;24.40;37.60;;;;;;1567788;75;1903;-71
2022/02/11 13:59:42;;;;;;;;;;;24.40;37.60;;;;;;1563902;74;725;-71
2022/02/11 14:01:44;;;;;;;;;;;24.40;37.60;;;;;;1560737;74;744;-73
2022/02/11 14:03:46;;;;;;;;;;;24.40;37.70;;;;;;1563999;75;712;-70
2022/02/11 14:05:49;;;;;;;;;;;24.30;37.60;;;;;;1569127;74;1139;-71
2022/02/11 14:07:51;;;;;;;;;;;24.40;37.70;;;;;;1557184;74;702;-71
2022/02/11 14:09:53;;;;;;;;;;;24.30;37.60;;;;;;1564601;74;747;-69
2022/02/11 14:11:55;;;;;;;;;;;24.40;37.60;;;;;;1557213;74;720;-70
2022/02/11 14:13:57;;;;;;;;;;;24.30;37.60;;;;;;1565719;74;754;-70
2022/02/11 14:15:59;;;;;;;;;;;24.30;37.60;;;;;;1540818;75;1172;-70
2022/02/11 14:18:03;;;;;;;;;;;24.30;37.60;;;;;;1562013;74;1918;-71
2022/02/11 14:20:05;;;;;;;;;;;24.30;37.60;;;;;;1558803;74;1011;-72
2022/02/11 14:22:07;;;;;;;;;;;24.30;37.50;;;;;;1558470;75;733;-71
2022/02/11 14:24:09;;;;;;;;;;;24.40;37.50;;;;;;1574293;74;687;-71
2022/02/11 14:26:11;;;;;;;;;;;24.30;37.40;;;;;;1569083;74;1127;-70
2022/02/11 14:28:13;;;;;;;;;;;24.30;37.40;;;;;;1572151;74;834;-73
2022/02/11 14:30:15;;;;;;;;;;;24.30;37.30;;;;;;1569320;74;761;-71
2022/02/11 14:32:17;;;;;;;;;;;24.30;37.40;;;;;;1578314;74;709;-74
2022/02/11 14:34:19;;;;;;;;;;;24.30;37.30;;;;;;1569166;74;717;-71
2022/02/11 14:36:21;;;;;;;;;;;24.30;37.30;;;;;;1566696;74;1178;-71
2022/02/11 14:38:24;;;;;;;;;;;24.30;37.30;;;;;;1560393;74;1934;-70
2022/02/11 14:40:25;;;;;;;;;;;24.30;37.30;;;;;;1557600;74;778;-71
2022/02/11 14:42:27;;;;;;;;;;;24.30;37.30;;;;;;1550420;74;729;-72
2022/02/11 14:44:30;;;;;;;;;;;24.30;37.20;;;;;;1561820;74;727;-74
2022/02/11 14:46:32;;;;;;;;;;;24.30;37.10;;;;;;1559721;74;1156;-73
2022/02/11 14:48:34;;;;;;;;;;;24.20;37.10;;;;;;1559869;74;761;-71
2022/02/11 14:50:36;;;;;;;;;;;24.30;37.10;;;;;;1554767;74;736;-70
2022/02/11 14:52:38;;;;;;;;;;;24.30;37.10;;;;;;1561867;74;945;-70
2022/02/11 14:54:39;;;;;;;;;;;24.20;36.90;;;;;;1556436;74;920;-75
2022/02/11 14:56:41;;;;;;;;;;;24.30;37.00;;;;;;1560862;74;1090;-71
2022/02/11 14:58:43;;;;;;;;;;;24.30;36.90;;;;;;1563994;74;1922;-71
2022/02/11 15:00:45;;;;;;;;;;;24.30;36.80;;;;;;1557634;74;670;-72
2022/02/11 15:02:47;;;;;;;;;;;24.20;36.80;;;;;;1561798;74;778;-72
2022/02/11 15:04:49;;;;;;;;;;;24.20;36.70;;;;;;1578865;74;747;-74
2022/02/11 15:06:51;;;;;;;;;;;24.20;36.70;;;;;;1565123;74;1136;-70
2022/02/11 15:08:53;;;;;;;;;;;24.20;36.60;;;;;;1565932;74;708;-70
2022/02/11 15:10:55;;;;;;;;;;;24.30;36.70;;;;;;1571829;74;722;-70
2022/02/11 15:12:57;;;;;;;;;;;24.30;36.60;;;;;;1562656;74;1055;-70
2022/02/11 15:14:59;;;;;;;;;;;24.20;36.50;;;;;;1569968;74;714;-70
2022/02/11 15:17:01;;;;;;;;;;;24.20;36.50;;;;;;1574435;74;1175;-70
2022/02/11 15:19:04;;;;;;;;;;;24.20;36.50;;;;;;1558100;74;1929;-71
2022/02/11 15:21:06;;;;;;;;;;;24.20;36.50;;;;;;1570151;75;641;-70
2022/02/11 15:23:08;;;;;;;;;;;24.30;36.60;;;;;;1567230;74;721;-70
2022/02/11 15:25:10;;;;;;;;;;;24.30;36.60;;;;;;1551957;74;773;-71
2022/02/11 15:27:11;;;;;;;;;;;24.30;36.50;;;;;;1552704;74;1068;-71
2022/02/11 15:29:13;;;;;;;;;;;24.20;36.40;;;;;;1555474;74;702;-73